createdAt,value
2023-03-02T00:03:39.322Z,3.10
2023-03-02T00:08:40.633Z,2.10
2023-03-02T00:13:41.940Z,2.13
2023-03-02T00:18:43.245Z,1.70
2023-03-02T00:23:44.610Z,2.13
2023-03-02T00:28:45.898Z,1.97
2023-03-02T00:33:47.171Z,2.33
2023-03-02T00:38:48.463Z,2.10
2023-03-02T00:43:49.760Z,2.00
2023-03-02T00:48:51.023Z,1.80
2023-03-02T00:53:52.409Z,1.73
2023-03-02T00:58:53.716Z,1.90
2023-03-02T01:03:55.008Z,1.90
2023-03-02T01:08:56.346Z,1.90
2023-03-02T01:13:57.657Z,1.93
2023-03-02T01:18:58.919Z,1.37
2023-03-02T01:24:00.233Z,1.70
2023-03-02T01:29:01.538Z,1.70
2023-03-02T01:34:02.838Z,1.90
2023-03-02T01:39:04.174Z,1.57
2023-03-02T01:44:05.479Z,1.73
2023-03-02T01:49:06.743Z,1.70
2023-03-02T01:54:07.987Z,1.30
2023-03-02T01:59:09.298Z,1.60
2023-03-02T02:04:10.638Z,1.20
2023-03-02T02:09:12.045Z,1.27
2023-03-02T02:14:13.317Z,1.23
2023-03-02T02:19:14.589Z,1.10
2023-03-02T02:24:15.853Z,1.43
2023-03-02T02:29:17.138Z,1.50
2023-03-02T02:34:18.436Z,1.20
2023-03-02T02:39:19.696Z,2.10
2023-03-02T02:44:20.960Z,1.30
2023-03-02T02:49:22.243Z,1.23
2023-03-02T02:54:23.495Z,1.10
2023-03-02T02:59:24.765Z,1.00
2023-03-02T03:04:26.121Z,1.00
2023-03-02T03:09:27.457Z,1.00
2023-03-02T03:14:28.737Z,0.90
2023-03-02T03:19:29.987Z,0.90
2023-03-02T03:24:31.307Z,1.20
2023-03-02T03:29:32.532Z,1.00
2023-03-02T03:34:33.819Z,1.10
2023-03-02T03:39:35.103Z,1.17
2023-03-02T03:44:36.372Z,0.80
2023-03-02T03:49:37.620Z,0.90
2023-03-02T03:54:38.982Z,1.10
2023-03-02T03:59:40.223Z,0.90
2023-03-02T04:04:41.464Z,0.80
2023-03-02T04:09:43.085Z,1.00
2023-03-02T04:14:44.342Z,0.83
2023-03-02T04:19:45.593Z,1.47
2023-03-02T04:24:46.856Z,0.90
2023-03-02T04:29:55.615Z,0.87
2023-03-02T04:34:56.900Z,1.87
2023-03-02T04:39:58.293Z,4.27
2023-03-02T04:44:59.555Z,1.03
2023-03-02T04:50:00.847Z,0.80
2023-03-02T04:55:02.110Z,1.67
2023-03-02T05:00:03.380Z,6.73
2023-03-02T05:05:04.686Z,1.97
2023-03-02T05:10:06.007Z,1.83
2023-03-02T05:15:07.312Z,2.00
2023-03-02T05:20:08.624Z,1.80
2023-03-02T05:25:09.935Z,1.83
2023-03-02T05:30:11.245Z,2.43
2023-03-02T05:35:14.146Z,3.03
2023-03-02T05:40:15.475Z,1.00
2023-03-02T05:45:16.731Z,1.10
2023-03-02T05:50:18.000Z,2.43
2023-03-02T05:55:19.303Z,1.10
2023-03-02T06:00:20.615Z,3.33
2023-03-02T06:05:21.923Z,2.50
2023-03-02T06:10:23.165Z,2.50
2023-03-02T06:15:24.425Z,2.90
2023-03-02T06:20:25.666Z,1.40
2023-03-02T06:25:26.974Z,0.80
2023-03-02T06:30:28.295Z,1.40
2023-03-02T06:35:29.649Z,0.93
2023-03-02T06:40:31.017Z,0.90
2023-03-02T06:45:32.345Z,1.20
2023-03-02T06:50:33.688Z,1.80
2023-03-02T06:55:35.005Z,2.50
2023-03-02T07:00:36.320Z,1.43
2023-03-02T07:05:37.567Z,1.73
2023-03-02T07:10:38.869Z,1.83
2023-03-02T07:15:40.136Z,1.20
2023-03-02T07:20:41.425Z,1.30
2023-03-02T07:25:42.651Z,1.43
2023-03-02T07:30:44.029Z,1.20
2023-03-02T07:35:45.403Z,1.93
2023-03-02T07:40:46.761Z,1.23
2023-03-02T07:45:48.132Z,1.97
2023-03-02T07:50:49.413Z,1.53
2023-03-02T07:55:50.677Z,1.60
2023-03-02T08:00:51.952Z,2.00
2023-03-02T08:05:53.233Z,2.30
2023-03-02T08:10:54.506Z,1.60
2023-03-02T08:15:55.777Z,1.93
2023-03-02T08:20:57.052Z,1.30
2023-03-02T08:25:58.345Z,1.73
2023-03-02T08:30:59.619Z,1.13
2023-03-02T08:36:01.016Z,1.60
2023-03-02T08:41:02.328Z,3.80
2023-03-02T08:46:03.616Z,2.53
2023-03-02T08:51:04.870Z,2.67
2023-03-02T08:56:06.103Z,3.03
2023-03-02T09:01:07.471Z,1.73
2023-03-02T09:06:08.777Z,2.23
2023-03-02T09:11:10.050Z,3.57
2023-03-02T09:16:11.344Z,1.53
2023-03-02T09:21:12.646Z,3.80
2023-03-02T09:26:13.936Z,1.37
2023-03-02T09:31:15.195Z,1.53
2023-03-02T09:36:16.443Z,2.23
2023-03-02T09:41:17.737Z,1.57
2023-03-02T09:46:19.040Z,1.87
2023-03-02T09:51:20.362Z,3.73
2023-03-02T09:56:21.634Z,1.97
2023-03-02T10:01:22.946Z,1.90
2023-03-02T10:06:24.223Z,2.07
2023-03-02T10:11:25.545Z,1.90
2023-03-02T10:16:26.893Z,2.33
2023-03-02T10:21:28.229Z,2.03
2023-03-02T10:26:29.467Z,1.70
2023-03-02T10:31:30.764Z,1.53
2023-03-02T10:36:32.081Z,1.80
2023-03-02T10:41:33.334Z,7.30
2023-03-02T10:46:34.987Z,1.40
2023-03-02T10:51:36.744Z,1.60
2023-03-02T10:56:38.068Z,1.50
2023-03-02T11:01:39.407Z,1.37
2023-03-02T11:06:40.769Z,1.37
2023-03-02T11:11:42.058Z,1.60
2023-03-02T11:16:43.404Z,2.33
2023-03-02T11:21:44.765Z,2.83
2023-03-02T11:26:46.073Z,1.80
2023-03-02T11:31:47.419Z,2.07
2023-03-02T11:36:48.717Z,1.70
2023-03-02T11:41:50.009Z,1.90
2023-03-02T11:46:51.364Z,1.90
2023-03-02T11:51:58.118Z,1.93
2023-03-02T11:56:59.989Z,1.90
2023-03-02T12:02:01.249Z,1.80
2023-03-02T12:07:02.749Z,1.70
2023-03-02T12:12:05.449Z,1.90
2023-03-02T12:17:06.774Z,2.50
2023-03-02T12:22:08.080Z,1.90
2023-03-02T12:27:09.399Z,1.70
2023-03-02T12:32:10.824Z,2.27
2023-03-02T12:37:12.143Z,1.60
2023-03-02T12:42:13.475Z,1.90
2023-03-02T12:47:15.562Z,1.30
2023-03-02T12:52:17.276Z,2.77
2023-03-02T12:57:18.684Z,1.87
2023-03-02T13:02:20.018Z,1.83
2023-03-02T13:07:21.326Z,2.63
2023-03-02T13:12:22.598Z,1.70
2023-03-02T13:17:23.906Z,2.23
2023-03-02T13:22:28.106Z,3.87
2023-03-02T13:27:29.544Z,2.10
2023-03-02T13:32:30.934Z,1.60
2023-03-02T13:37:32.222Z,1.53
2023-03-02T13:42:33.523Z,2.40
2023-03-02T13:47:34.753Z,2.00
2023-03-02T13:52:36.045Z,1.80
2023-03-02T13:57:37.386Z,2.63
2023-03-02T14:02:38.651Z,2.60
2023-03-02T14:07:39.957Z,1.63
2023-03-02T14:12:41.201Z,1.73
2023-03-02T14:17:42.463Z,2.07
2023-03-02T14:22:43.719Z,2.20
2023-03-02T14:27:44.991Z,2.50
2023-03-02T14:32:46.273Z,2.00
2023-03-02T14:37:47.543Z,1.90
2023-03-02T14:42:48.784Z,2.00
2023-03-02T14:47:50.086Z,2.30
2023-03-02T14:52:51.348Z,2.03
2023-03-02T14:57:52.661Z,1.93
2023-03-02T15:02:54.213Z,2.10
2023-03-02T15:07:58.237Z,2.20
2023-03-02T15:12:59.976Z,2.13
2023-03-02T15:18:01.289Z,2.43
2023-03-02T15:23:02.610Z,2.30
2023-03-02T15:28:03.876Z,2.30
2023-03-02T15:33:05.138Z,1.90
2023-03-02T15:38:06.450Z,2.77
2023-03-02T15:43:07.737Z,2.73
2023-03-02T15:48:08.970Z,2.60
2023-03-02T15:53:10.294Z,2.67
2023-03-02T15:58:11.610Z,2.70
2023-03-02T16:03:12.897Z,3.03
2023-03-02T16:08:14.200Z,2.40
2023-03-02T16:13:15.516Z,2.73
2023-03-02T16:18:16.800Z,2.90
2023-03-02T16:23:18.102Z,3.20
2023-03-02T16:28:19.418Z,2.90
2023-03-02T16:33:20.749Z,2.97
2023-03-02T16:38:22.032Z,2.63
2023-03-02T16:43:23.303Z,2.53
2023-03-02T16:48:24.564Z,3.10
2023-03-02T16:53:25.814Z,2.93
2023-03-02T16:58:27.122Z,2.63
2023-03-02T17:03:28.355Z,3.70
2023-03-02T17:08:29.620Z,2.53
2023-03-02T17:13:30.885Z,2.70
2023-03-02T17:18:32.223Z,3.77
2023-03-02T17:23:33.503Z,3.87
2023-03-02T17:28:34.806Z,3.33
2023-03-02T17:33:36.079Z,3.20
2023-03-02T17:38:37.402Z,3.63
2023-03-02T17:43:38.721Z,3.57
2023-03-02T17:48:40.023Z,6.33
2023-03-02T17:53:41.349Z,3.47
2023-03-02T17:58:45.317Z,3.47
2023-03-02T18:03:46.947Z,3.83
2023-03-02T18:08:48.287Z,4.97
2023-03-02T18:13:49.589Z,4.90
2023-03-02T18:18:53.525Z,5.23
2023-03-02T18:23:55.148Z,7.37
2023-03-02T18:28:56.443Z,8.13
2023-03-02T18:33:57.761Z,6.60
2023-03-02T18:38:59.020Z,4.73
2023-03-02T18:44:00.318Z,9.57
2023-03-02T18:49:01.623Z,8.23
2023-03-02T18:54:03.119Z,4.50
2023-03-02T18:59:04.389Z,5.17
2023-03-02T19:04:05.661Z,4.80
2023-03-02T19:09:06.988Z,4.53
2023-03-02T19:14:08.282Z,3.73
2023-03-02T19:19:09.551Z,7.10
2023-03-02T19:24:10.819Z,3.07
2023-03-02T19:29:12.086Z,5.73
2023-03-02T19:34:13.402Z,2.60
2023-03-02T19:39:14.723Z,3.23
2023-03-02T19:44:16.397Z,4.77
2023-03-02T19:49:17.707Z,6.60
2023-03-02T19:54:18.988Z,7.77
2023-03-02T19:59:20.263Z,2.87
2023-03-02T20:04:21.542Z,2.67
2023-03-02T20:09:22.808Z,2.33
2023-03-02T20:14:33.495Z,4.37
2023-03-02T20:19:35.458Z,3.10
2023-03-02T20:24:36.782Z,2.73
2023-03-02T20:29:38.110Z,3.97
2023-03-02T20:34:39.405Z,2.67
2023-03-02T20:39:40.671Z,5.80
2023-03-02T20:44:41.969Z,3.87
2023-03-02T20:49:43.312Z,4.10
2023-03-02T20:54:44.642Z,2.37
2023-03-02T20:59:45.941Z,2.87
2023-03-02T21:04:47.292Z,2.63
2023-03-02T21:09:48.658Z,3.80
2023-03-02T21:14:49.971Z,4.47
2023-03-02T21:19:51.303Z,2.97
2023-03-02T21:24:52.626Z,2.20
2023-03-02T21:29:53.980Z,4.60
2023-03-02T21:34:55.339Z,3.03
2023-03-02T21:39:56.630Z,2.80
2023-03-02T21:44:58.129Z,2.90
2023-03-02T21:49:59.436Z,2.87
2023-03-02T21:55:00.736Z,3.33
2023-03-02T22:00:02.037Z,4.23
2023-03-02T22:05:03.332Z,3.37
2023-03-02T22:10:04.708Z,3.83
2023-03-02T22:15:06.047Z,4.17
2023-03-02T22:20:07.318Z,4.97
2023-03-02T22:25:08.621Z,4.87
2023-03-02T22:30:09.931Z,6.87
2023-03-02T22:35:11.212Z,11.33
2023-03-02T22:40:12.482Z,8.83
2023-03-02T22:45:13.765Z,8.43
2023-03-02T22:50:15.708Z,8.27
2023-03-02T22:55:17.014Z,8.10
2023-03-02T23:00:18.304Z,6.70
2023-03-02T23:05:19.607Z,7.00
2023-03-02T23:10:20.925Z,7.07
2023-03-02T23:15:22.233Z,6.57
2023-03-02T23:20:23.504Z,6.83
2023-03-02T23:25:24.748Z,6.63
2023-03-02T23:30:25.983Z,6.13
2023-03-02T23:35:27.324Z,6.47
2023-03-02T23:40:28.567Z,5.77
2023-03-02T23:45:29.989Z,6.30
2023-03-02T23:50:31.328Z,4.27
2023-03-02T23:55:32.582Z,4.40
